Time;durP1;ratioP1;P1;durP2;ratioP2;P2;SDS_P1;SDS_P2;PMS_P1;PMS_P2;Temp;Humidity;BMP_temperature;BMP_pressure;BME280_temperature;BME280_humidity;BME280_pressure;Samples;Min_cycle;Max_cycle;Signal;HPM_P1;HPM_P2
2021/05/01 00:00:47;;;;;;;13.37;9.40;;;;;;;7.24;78.23;100709.27;128360;1101;62316;-76
2021/05/01 00:03:14;;;;;;;14.00;9.25;;;;;;;7.20;78.85;100706.09;128394;1101;62069;-76
2021/05/01 00:05:42;;;;;;;15.17;10.20;;;;;;;7.20;79.03;100703.45;128379;1101;62480;-76
2021/05/01 00:08:12;;;;;;;14.80;8.50;;;;;;;7.20;79.05;100694.72;128406;1101;62093;-76
2021/05/01 00:10:38;;;;;;;13.80;9.53;;;;;;;7.18;78.91;100689.59;128412;1101;62827;-75
2021/05/01 00:13:05;;;;;;;16.30;9.70;;;;;;;7.19;78.98;100693.90;128360;1101;62549;-76
2021/05/01 00:15:32;;;;;;;14.80;9.40;;;;;;;7.19;78.96;100690.44;128391;1101;62069;-75
2021/05/01 00:17:58;;;;;;;15.90;10.00;;;;;;;7.17;78.90;100689.77;128317;1101;62385;-75
2021/05/01 00:20:25;;;;;;;15.77;10.60;;;;;;;7.14;79.05;100680.35;128275;1101;62340;-75
2021/05/01 00:22:51;;;;;;;14.10;8.87;;;;;;;7.10;79.08;100681.64;128301;1101;63348;-75
2021/05/01 00:25:18;;;;;;;15.60;9.87;;;;;;;7.06;79.30;100672.37;128398;1101;62005;-75
2021/05/01 00:27:44;;;;;;;14.93;10.03;;;;;;;7.03;79.75;100676.11;128409;1101;62095;-76
2021/05/01 00:30:12;;;;;;;13.27;9.43;;;;;;;7.01;79.37;100677.25;128410;1101;62311;-76
2021/05/01 00:32:38;;;;;;;16.60;10.50;;;;;;;6.96;79.37;100676.89;128363;1101;62044;-75
2021/05/01 00:35:06;;;;;;;18.20;9.77;;;;;;;6.92;79.18;100681.63;128320;1101;62246;-76
2021/05/01 00:37:32;;;;;;;17.73;10.30;;;;;;;6.85;79.13;100670.86;128367;1101;61944;-76
2021/05/01 00:39:59;;;;;;;15.17;8.87;;;;;;;6.84;79.50;100671.86;128414;1101;62385;-76
2021/05/01 00:42:26;;;;;;;15.87;9.10;;;;;;;6.81;79.86;100666.05;128422;1101;62247;-76
2021/05/01 00:44:52;;;;;;;13.87;8.47;;;;;;;6.74;79.72;100663.19;128360;1101;62217;-75
2021/05/01 00:47:19;;;;;;;14.00;9.57;;;;;;;6.66;79.63;100663.93;128418;1101;63114;-76
2021/05/01 00:49:46;;;;;;;14.43;9.73;;;;;;;6.59;79.97;100662.03;128411;1101;62247;-76
2021/05/01 00:52:13;;;;;;;15.17;10.30;;;;;;;6.49;80.09;100655.03;128410;1101;62143;-76
2021/05/01 00:54:39;;;;;;;16.93;10.13;;;;;;;6.41;80.32;100654.95;128367;1101;62351;-76
2021/05/01 00:57:06;;;;;;;17.77;11.63;;;;;;;6.35;80.48;100655.53;128395;1101;62132;-76
2021/05/01 00:59:35;;;;;;;15.53;10.13;;;;;;;6.31;80.84;100654.17;128378;1101;63109;-76
2021/05/01 01:02:02;;;;;;;15.83;10.30;;;;;;;6.25;80.61;100657.42;128349;1101;62894;-76
2021/05/01 01:04:28;;;;;;;17.03;10.80;;;;;;;6.20;80.63;100659.66;128401;1101;62174;-77
2021/05/01 01:06:55;;;;;;;16.30;10.03;;;;;;;6.14;81.21;100655.80;128387;1101;62844;-77
2021/05/01 01:09:21;;;;;;;16.80;9.53;;;;;;;6.10;81.05;100654.45;128356;1101;62211;-76
2021/05/01 01:11:48;;;;;;;16.73;10.73;;;;;;;6.03;81.22;100654.19;128392;1101;62160;-76
2021/05/01 01:14:15;;;;;;;18.07;10.60;;;;;;;5.93;81.34;100648.95;128366;1101;61990;-75
2021/05/01 01:16:44;;;;;;;18.40;11.83;;;;;;;5.86;81.90;100649.67;128431;1101;62562;-76
2021/05/01 01:19:13;;;;;;;20.27;11.17;;;;;;;5.78;82.40;100660.09;128385;1101;62219;-76
2021/05/01 01:21:44;;;;;;;27.47;12.53;;;;;;;5.73;82.08;100658.72;128110;1103;62243;-77
2021/05/01 01:24:12;;;;;;;21.27;12.73;;;;;;;5.70;82.49;100653.76;128394;1101;62111;-77
2021/05/01 01:26:40;;;;;;;20.97;13.40;;;;;;;5.65;83.09;100663.90;128428;1101;62296;-77
2021/05/01 01:29:08;;;;;;;20.53;11.90;;;;;;;5.62;82.92;100658.91;128410;1101;62381;-77
2021/05/01 01:31:35;;;;;;;18.77;11.73;;;;;;;5.58;83.04;100657.53;128406;1101;62612;-77
2021/05/01 01:34:04;;;;;;;20.73;13.10;;;;;;;5.55;83.52;100656.98;128307;1101;62341;-77
2021/05/01 01:36:31;;;;;;;21.23;12.97;;;;;;;5.51;82.91;100653.83;128439;1101;62923;-77
2021/05/01 01:38:59;;;;;;;20.20;12.73;;;;;;;5.45;83.52;100655.22;128451;1101;62319;-77
2021/05/01 01:41:25;;;;;;;20.97;12.63;;;;;;;5.42;83.25;100654.66;128402;1101;62083;-76
2021/05/01 01:43:52;;;;;;;20.30;12.83;;;;;;;5.39;83.48;100655.78;128406;1101;62121;-77
2021/05/01 01:46:19;;;;;;;22.77;14.07;;;;;;;5.35;83.44;100666.73;128385;1102;62358;-77
2021/05/01 01:48:45;;;;;;;23.50;14.00;;;;;;;5.29;82.98;100662.86;128394;1101;62203;-77
2021/05/01 01:51:12;;;;;;;22.27;14.13;;;;;;;5.23;83.62;100660.82;128363;1101;61958;-77
2021/05/01 01:53:38;;;;;;;23.03;14.50;;;;;;;5.18;84.15;100650.70;128395;1101;62638;-77
2021/05/01 01:56:05;;;;;;;22.10;12.60;;;;;;;5.17;84.25;100653.48;128339;1101;62244;-77
2021/05/01 01:58:32;;;;;;;19.50;12.70;;;;;;;5.16;84.21;100650.00;128415;1101;62298;-77
2021/05/01 02:00:59;;;;;;;18.33;11.80;;;;;;;5.14;84.46;100649.31;128383;1101;62507;-77
2021/05/01 02:03:28;;;;;;;20.63;12.80;;;;;;;5.09;84.61;100659.44;128388;1101;62395;-76
2021/05/01 02:05:57;;;;;;;20.63;11.30;;;;;;;5.03;84.18;100646.84;128436;1101;62159;-77
2021/05/01 02:08:24;;;;;;;19.03;11.43;;;;;;;4.99;84.04;100655.98;128372;1101;62387;-76
2021/05/01 02:10:50;;;;;;;18.10;10.63;;;;;;;4.95;84.80;100651.97;128320;1101;62590;-76
2021/05/01 02:13:17;;;;;;;23.70;14.10;;;;;;;4.93;85.04;100651.28;128375;1101;62241;-76
2021/05/01 02:15:43;;;;;;;21.20;12.93;;;;;;;4.94;85.20;100650.33;128388;1101;62158;-77
2021/05/01 02:18:10;;;;;;;18.43;12.70;;;;;;;4.98;85.52;100649.91;128457;1101;63050;-76
2021/05/01 02:20:38;;;;;;;20.73;13.27;;;;;;;5.01;85.13;100646.16;128342;1101;63879;-76
2021/05/01 02:23:06;;;;;;;20.33;12.83;;;;;;;5.03;84.70;100641.59;128395;1101;62122;-76
2021/05/01 02:25:33;;;;;;;17.67;11.60;;;;;;;5.04;85.25;100640.64;128407;1101;62516;-76
2021/05/01 02:28:00;;;;;;;21.80;13.03;;;;;;;5.05;85.71;100635.22;128395;1101;62248;-77
2021/05/01 02:30:28;;;;;;;20.03;12.47;;;;;;;5.08;85.35;100636.77;128444;1101;62028;-77
2021/05/01 02:32:56;;;;;;;21.83;13.43;;;;;;;5.10;85.78;100635.64;128199;1102;63005;-77
2021/05/01 02:35:27;;;;;;;22.90;13.47;;;;;;;5.14;85.83;100630.09;128398;1101;62426;-77
2021/05/01 02:37:54;;;;;;;22.50;13.20;;;;;;;5.16;85.65;100630.78;128345;1101;62588;-77
2021/05/01 02:40:22;;;;;;;20.17;13.23;;;;;;;5.16;85.27;100628.97;128374;1101;62226;-77
2021/05/01 02:42:49;;;;;;;18.57;12.53;;;;;;;5.15;84.68;100624.70;128436;1101;62516;-77
2021/05/01 02:45:18;;;;;;;21.73;12.47;;;;;;;5.17;85.71;100632.45;128372;1101;62180;-77
2021/05/01 02:47:46;;;;;;;19.67;12.53;;;;;;;5.18;85.68;100626.20;128665;1101;62097;-77
2021/05/01 02:50:14;;;;;;;19.13;12.47;;;;;;;5.19;85.91;100628.70;128450;1101;62289;-76
2021/05/01 02:52:41;;;;;;;18.63;12.50;;;;;;;5.21;85.46;100618.88;128123;1101;64021;-76
2021/05/01 02:55:09;;;;;;;23.60;13.70;;;;;;;5.25;85.56;100614.17;128357;1101;62410;-77
2021/05/01 02:57:37;;;;;;;21.80;14.43;;;;;;;5.27;85.34;100606.94;128380;1101;62831;-77
2021/05/01 03:00:06;;;;;;;22.33;14.50;;;;;;;5.32;85.53;100609.98;128640;1101;62166;-76
2021/05/01 03:02:33;;;;;;;21.77;13.63;;;;;;;;;;128474;1101;62621;-76
2021/05/01 03:05:00;;;;;;;22.63;13.43;;;;;;;5.40;85.68;100601.36;128395;1101;62323;-76
2021/05/01 03:07:32;;;;;;;20.27;12.70;;;;;;;5.44;85.91;100600.10;128406;1101;62039;-76
2021/05/01 03:09:58;;;;;;;21.67;14.23;;;;;;;5.44;86.15;100592.20;128386;1101;62305;-76
2021/05/01 03:12:25;;;;;;;22.03;13.50;;;;;;;5.42;86.31;100589.75;128084;1102;62465;-75
2021/05/01 03:14:51;;;;;;;21.40;13.80;;;;;;;5.41;86.18;100592.52;128421;1101;62325;-75
2021/05/01 03:17:18;;;;;;;22.17;13.77;;;;;;;5.39;86.02;100591.83;128394;1101;62106;-75
2021/05/01 03:19:45;;;;;;;27.40;16.23;;;;;;;5.40;86.24;100588.20;128390;1101;62034;-75
2021/05/01 03:22:11;;;;;;;24.17;14.60;;;;;;;5.41;86.54;100587.25;128368;1101;62298;-76
2021/05/01 03:24:38;;;;;;;22.57;14.37;;;;;;;5.41;86.52;100587.25;128365;1101;62388;-76
2021/05/01 03:27:05;;;;;;;23.50;14.20;;;;;;;5.40;86.27;100591.69;128419;1101;62324;-75
2021/05/01 03:29:33;;;;;;;22.03;14.77;;;;;;;5.39;86.17;100595.28;128369;1102;63026;-76
2021/05/01 03:32:00;;;;;;;24.00;13.97;;;;;;;5.39;86.80;100599.72;128372;1101;62098;-76
2021/05/01 03:34:27;;;;;;;24.70;14.47;;;;;;;5.39;86.58;100595.28;128361;1101;63377;-76
2021/05/01 03:36:53;;;;;;;17.97;13.03;;;;;;;5.39;86.29;100602.34;128356;1101;62287;-75
2021/05/01 03:39:20;;;;;;;25.60;16.43;;;;;;;5.35;86.20;100598.34;128402;1101;62175;-76
2021/05/01 03:41:46;;;;;;;24.47;15.43;;;;;;;5.33;85.78;100595.03;128413;1101;63275;-76
2021/05/01 03:44:16;;;;;;;23.43;14.10;;;;;;;5.28;86.04;100600.72;128394;1101;63900;-76
2021/05/01 03:46:43;;;;;;;25.50;15.10;;;;;;;5.21;85.53;100597.84;128419;1101;63349;-76
2021/05/01 03:49:10;;;;;;;25.40;15.20;;;;;;;5.17;85.60;100601.72;128384;1101;62167;-76
2021/05/01 03:51:37;;;;;;;24.87;15.20;;;;;;;5.12;86.24;100598.67;128396;1101;62484;-75
2021/05/01 03:54:03;;;;;;;29.40;17.30;;;;;;;5.10;86.55;100598.83;128438;1101;62176;-75
2021/05/01 03:56:33;;;;;;;24.23;15.80;;;;;;;5.05;86.73;100602.84;128437;1101;63409;-76
2021/05/01 03:59:00;;;;;;;23.10;15.43;;;;;;;4.98;86.53;100597.33;128389;1101;62070;-75
2021/05/01 04:01:27;;;;;;;34.97;20.57;;;;;;;4.94;86.50;100589.87;128379;1101;62827;-75
2021/05/01 04:03:53;;;;;;;30.90;18.50;;;;;;;4.89;86.66;100595.55;128268;1101;62252;-75
2021/05/01 04:06:20;;;;;;;30.83;17.40;;;;;;;4.86;86.20;100601.89;128355;1101;62122;-76
2021/05/01 04:08:47;;;;;;;30.63;17.80;;;;;;;4.84;86.42;100606.46;128417;1101;62150;-76
2021/05/01 04:11:34;;;;;;;28.53;17.27;;;;;;;4.82;87.08;100607.58;128352;1101;62379;-75
2021/05/01 04:14:06;;;;;;;24.87;16.13;;;;;;;4.81;87.31;100601.50;127974;1104;62642;-76
2021/05/01 04:16:33;;;;;;;26.87;16.57;;;;;;;4.80;87.07;100606.88;127732;1103;64407;-76
2021/05/01 04:18:59;;;;;;;28.70;17.07;;;;;;;4.78;87.10;100599.16;127891;1104;62709;-75
2021/05/01 04:21:26;;;;;;;28.60;17.77;;;;;;;4.76;87.29;100603.73;128077;1104;62941;-75
2021/05/01 04:23:52;;;;;;;27.90;16.43;;;;;;;4.76;87.56;100603.73;128047;1104;64048;-75
2021/05/01 04:26:20;;;;;;;30.60;18.87;;;;;;;4.78;88.03;100603.56;128052;1104;62615;-75
2021/05/01 04:28:47;;;;;;;30.07;16.80;;;;;;;4.81;87.57;100609.38;128107;1104;62051;-76
2021/05/01 04:31:15;;;;;;;29.80;18.63;;;;;;;4.85;87.68;100610.77;128110;1102;62068;-76
2021/05/01 04:33:41;;;;;;;28.53;16.53;;;;;;;4.90;87.92;100613.79;128079;1101;62444;-75
2021/05/01 04:36:08;;;;;;;26.43;15.83;;;;;;;4.92;87.08;100615.46;128049;1101;62552;-76
2021/05/01 04:38:34;;;;;;;24.30;15.43;;;;;;;4.91;87.20;100617.27;128008;1104;62281;-76
2021/05/01 04:41:04;;;;;;;25.70;15.37;;;;;;;4.94;88.01;100610.89;128054;1104;62288;-76
2021/05/01 04:43:31;;;;;;;22.73;14.47;;;;;;;4.95;86.99;100607.28;128032;1104;62282;-76
2021/05/01 04:45:58;;;;;;;28.63;16.50;;;;;;;4.97;87.13;100605.34;128092;1103;62062;-76
2021/05/01 04:48:24;;;;;;;26.80;15.77;;;;;;;5.00;86.89;100612.97;128067;1104;62755;-74
2021/05/01 04:50:52;;;;;;;24.97;15.70;;;;;;;5.02;86.66;100613.66;128103;1101;62107;-74
2021/05/01 04:53:19;;;;;;;27.37;15.90;;;;;;;5.03;86.40;100608.23;128099;1103;62210;-74
2021/05/01 04:55:45;;;;;;;31.40;16.53;;;;;;;5.07;87.21;100603.53;128009;1103;62204;-73
2021/05/01 04:58:12;;;;;;;26.50;16.63;;;;;;;5.17;87.34;100606.16;128107;1101;63773;-73
2021/05/01 05:00:39;;;;;;;30.50;18.20;;;;;;;5.24;87.63;100607.23;128064;1104;62974;-74
2021/05/01 05:03:06;;;;;;;26.63;16.53;;;;;;;5.26;86.62;100611.38;128082;1103;62440;-74
2021/05/01 05:05:37;;;;;;;26.37;16.57;;;;;;;5.35;86.93;100607.06;128028;1104;62287;-75
2021/05/01 05:08:05;;;;;;;18.73;11.87;;;;;;;5.40;86.96;100611.88;128083;1103;62188;-75
2021/05/01 05:10:32;;;;;;;28.53;17.60;;;;;;;5.50;87.29;100610.05;128055;1104;62826;-74
2021/05/01 05:12:58;;;;;;;34.10;17.13;;;;;;;5.61;87.01;100616.94;128063;1103;62811;-74
2021/05/01 05:15:25;;;;;;;30.27;17.57;;;;;;;5.68;87.15;100610.96;128036;1103;62448;-74
2021/05/01 05:17:53;;;;;;;28.97;17.33;;;;;;;5.75;86.28;100615.65;128067;1104;62268;-74
2021/05/01 05:20:20;;;;;;;28.00;16.43;;;;;;;5.79;86.75;100612.57;128060;1104;62061;-73
2021/05/01 05:22:47;;;;;;;28.73;15.53;;;;;;;5.84;86.71;100609.50;128058;1102;62728;-73
2021/05/01 05:25:14;;;;;;;25.40;15.60;;;;;;;5.91;86.83;100606.14;128085;1101;63090;-74
2021/05/01 05:27:40;;;;;;;30.30;16.90;;;;;;;6.00;86.15;100601.83;128027;1104;62092;-74
2021/05/01 05:30:08;;;;;;;26.43;15.80;;;;;;;6.11;86.56;100600.80;128131;1102;62314;-74
2021/05/01 05:32:35;;;;;;;30.30;18.63;;;;;;;6.18;85.77;100606.30;128361;1101;62176;-75
2021/05/01 05:35:02;;;;;;;28.20;15.73;;;;;;;6.28;85.96;100612.33;128391;1101;62037;-74
2021/05/01 05:37:31;;;;;;;28.07;16.17;;;;;;;6.41;85.70;100610.15;128411;1101;62138;-75
2021/05/01 05:39:57;;;;;;;29.50;16.70;;;;;;;6.54;85.65;100615.05;128296;1101;62546;-75
2021/05/01 05:42:24;;;;;;;26.20;15.63;;;;;;;6.69;85.32;100620.62;128396;1101;62262;-75
2021/05/01 05:44:51;;;;;;;28.97;17.77;;;;;;;6.81;85.51;100618.59;128386;1101;62419;-76
2021/05/01 05:47:19;;;;;;;29.57;15.63;;;;;;;6.92;85.26;100623.61;128361;1101;62284;-75
2021/05/01 05:49:47;;;;;;;32.07;17.17;;;;;;;7.01;84.71;100616.59;128458;1101;62892;-75
2021/05/01 05:52:13;;;;;;;20.50;13.87;;;;;;;7.05;84.64;100628.49;128077;1101;62791;-74
2021/05/01 05:54:40;;;;;;;20.03;14.17;;;;;;;7.13;84.58;100625.92;128348;1101;62735;-75
2021/05/01 05:57:10;;;;;;;26.67;15.67;;;;;;;7.28;84.48;100626.19;128402;1101;62638;-75
2021/05/01 05:59:39;;;;;;;26.87;16.83;;;;;;;7.41;84.06;100631.05;128365;1101;62175;-75
2021/05/01 06:02:08;;;;;;;23.27;15.07;;;;;;;7.55;83.80;100635.75;128427;1101;62468;-75
2021/05/01 06:05:10;;;;;;;24.13;12.17;;;;;;;7.67;83.66;100629.23;128331;1101;62370;-75
2021/05/01 06:07:40;;;;;;;25.97;16.07;;;;;;;7.84;83.03;100626.64;128282;1101;63056;-76
2021/05/01 06:10:10;;;;;;;24.63;16.07;;;;;;;7.95;82.80;100623.73;128364;1101;62399;-75
2021/05/01 06:12:38;;;;;;;24.57;15.27;;;;;;;8.06;83.34;100619.97;128347;1101;62835;-75
2021/05/01 06:15:08;;;;;;;25.77;15.00;;;;;;;8.21;82.92;100620.18;128386;1101;62406;-75
2021/05/01 06:17:36;;;;;;;24.57;15.10;;;;;;;8.31;82.42;100619.05;128351;1101;62499;-76
2021/05/01 06:20:07;;;;;;;22.20;14.73;;;;;;;8.42;82.83;100612.66;128372;1101;62506;-76
2021/05/01 06:22:34;;;;;;;20.47;13.23;;;;;;;8.60;82.34;100609.03;128354;1101;63433;-76
2021/05/01 06:25:01;;;;;;;21.47;13.00;;;;;;;8.76;81.65;100611.69;128391;1101;61771;-76
2021/05/01 06:27:29;;;;;;;22.80;14.60;;;;;;;8.96;80.77;100618.28;128378;1101;63462;-75
2021/05/01 06:29:55;;;;;;;22.77;14.20;;;;;;;9.15;80.51;100622.41;128327;1101;62245;-76
2021/05/01 06:32:22;;;;;;;21.33;13.83;;;;;;;9.34;80.83;100621.22;128331;1101;62163;-76
2021/05/01 06:34:53;;;;;;;16.47;10.23;;;;;;;9.56;79.66;100618.84;128307;1101;62170;-76
2021/05/01 06:37:21;;;;;;;11.93;7.37;;;;;;;9.73;77.49;100615.17;128391;1101;62148;-75
2021/05/01 06:39:50;;;;;;;19.50;12.63;;;;;;;9.95;78.11;100623.36;128362;1101;62847;-76
2021/05/01 06:42:25;;;;;;;18.40;11.47;;;;;;;10.13;75.25;100615.95;128382;1101;62250;-76
2021/05/01 06:44:56;;;;;;;;;;;;;;;10.29;74.70;100622.19;128443;1101;62324;-76
2021/05/01 06:47:26;;;;;;;15.80;9.80;;;;;;;10.42;74.34;100622.47;128341;1101;61991;-76
2021/05/01 06:50:13;;;;;;;15.73;10.50;;;;;;;10.56;74.93;100621.72;128396;1101;62153;-76
2021/05/01 06:52:42;;;;;;;14.13;10.17;;;;;;;10.69;75.12;100631.73;128262;1101;62410;-75
2021/05/01 06:55:11;;;;;;;11.73;8.27;;;;;;;10.81;72.38;100634.78;128302;1101;63246;-76
2021/05/01 06:57:38;;;;;;;17.30;12.03;;;;;;;10.83;72.08;100627.47;128346;1101;62224;-76
2021/05/01 07:00:08;;;;;;;16.57;11.33;;;;;;;10.78;71.61;100619.23;128361;1101;62347;-77
2021/05/01 07:02:43;;;;;;;13.53;9.87;;;;;;;10.74;72.33;100621.41;128369;1101;62190;-77
2021/05/01 07:05:22;;;;;;;16.40;10.90;;;;;;;10.78;73.49;100614.74;128341;1101;62444;-77
2021/05/01 07:07:50;;;;;;;13.37;9.97;;;;;;;10.87;72.51;100617.33;128356;1101;62246;-77
2021/05/01 07:10:19;;;;;;;17.93;12.27;;;;;;;11.08;72.92;100619.31;128408;1101;61920;-76
2021/05/01 07:12:46;;;;;;;17.70;11.63;;;;;;;11.25;71.60;100626.11;128392;1101;62381;-76
2021/05/01 07:15:18;;;;;;;13.63;10.10;;;;;;;11.27;70.69;100617.97;128374;1101;62857;-77
2021/05/01 07:17:49;;;;;;;14.20;9.83;;;;;;;11.26;70.48;100622.44;128354;1101;62889;-76
2021/05/01 07:20:16;;;;;;;12.03;8.10;;;;;;;11.26;71.02;100622.44;128370;1101;62456;-77
2021/05/01 07:22:43;;;;;;;14.87;10.17;;;;;;;11.20;70.20;100624.00;128350;1101;62693;-77
2021/05/01 07:25:13;;;;;;;14.40;10.93;;;;;;;11.20;71.41;100616.03;128364;1101;62056;-77
2021/05/01 07:27:53;;;;;;;17.73;9.97;;;;;;;11.31;71.54;100620.08;128356;1101;62685;-77
2021/05/01 07:30:24;;;;;;;11.73;7.60;;;;;;;11.46;71.29;100620.09;128411;1101;62182;-77
2021/05/01 07:32:56;;;;;;;11.73;8.50;;;;;;;11.60;69.63;100618.42;128395;1101;62387;-77
2021/05/01 07:35:25;;;;;;;10.20;7.63;;;;;;;11.70;67.50;100607.53;128372;1101;62014;-77
2021/05/01 07:37:54;;;;;;;15.67;10.50;;;;;;;11.74;66.33;100606.97;128412;1101;62011;-77
2021/05/01 07:40:30;;;;;;;12.17;7.73;;;;;;;11.77;66.59;100603.12;128397;1101;62152;-76
2021/05/01 07:43:00;;;;;;;12.17;9.23;;;;;;;11.78;66.41;100605.59;128429;1101;62096;-77
2021/05/01 07:45:27;;;;;;;12.33;8.30;;;;;;;11.83;65.55;100608.52;128407;1101;62279;-76
2021/05/01 07:47:56;;;;;;;14.87;10.17;;;;;;;11.79;64.40;100612.58;128403;1101;62285;-77
2021/05/01 07:50:25;;;;;;;11.77;7.87;;;;;;;11.71;64.65;100604.70;128396;1101;62283;-77
2021/05/01 07:52:53;;;;;;;10.83;7.77;;;;;;;11.72;64.74;100606.33;128447;1101;62215;-77
2021/05/01 07:55:21;;;;;;;12.63;8.27;;;;;;;11.74;64.81;100604.31;128336;1101;63391;-77
2021/05/01 07:57:48;;;;;;;10.57;7.33;;;;;;;11.79;64.98;100604.61;128391;1101;62675;-77
2021/05/01 08:00:17;;;;;;;10.07;6.63;;;;;;;11.92;64.64;100605.78;128368;1101;62053;-78
2021/05/01 08:02:43;;;;;;;11.80;7.70;;;;;;;12.10;63.31;100608.06;128407;1101;62233;-78
2021/05/01 08:05:14;;;;;;;11.10;6.63;;;;;;;12.37;62.83;100603.86;128384;1101;62615;-77
2021/05/01 08:07:42;;;;;;;13.20;10.07;;;;;;;12.55;62.69;100596.25;128387;1101;62896;-78
2021/05/01 08:10:09;;;;;;;12.90;9.37;;;;;;;12.67;62.08;100598.42;128348;1101;62410;-78
2021/05/01 08:12:36;;;;;;;12.07;9.37;;;;;;;12.69;61.68;100593.70;128395;1101;61876;-77
2021/05/01 08:15:05;;;;;;;14.03;9.63;;;;;;;12.75;62.39;100591.13;128396;1101;62270;-77
2021/05/01 08:17:33;;;;;;;11.17;8.10;;;;;;;12.92;62.42;100591.67;128384;1101;62218;-76
2021/05/01 08:19:59;;;;;;;9.50;6.27;;;;;;;13.04;59.43;100590.11;128266;1101;62494;-76
2021/05/01 08:22:26;;;;;;;15.80;9.73;;;;;;;13.08;60.16;100587.89;128340;1101;62223;-78
2021/05/01 08:24:58;;;;;;;12.97;9.73;;;;;;;13.19;59.82;100591.85;128383;1101;62664;-77
2021/05/01 08:27:27;;;;;;;12.43;8.30;;;;;;;13.45;59.67;100581.41;128355;1101;62053;-78
2021/05/01 08:29:54;;;;;;;11.37;8.50;;;;;;;13.64;57.38;100589.68;128335;1101;62590;-76
2021/05/01 08:32:20;;;;;;;11.87;7.97;;;;;;;13.89;58.71;100587.34;128373;1101;62085;-78
2021/05/01 08:34:47;;;;;;;12.50;8.57;;;;;;;14.13;57.75;100583.33;128342;1101;62524;-76
2021/05/01 08:37:14;;;;;;;11.93;8.30;;;;;;;14.41;57.54;100585.03;128367;1101;63971;-76
2021/05/01 08:39:41;;;;;;;10.13;7.97;;;;;;;14.71;57.84;100579.34;128392;1101;62227;-76
2021/05/01 08:42:08;;;;;;;13.07;8.57;;;;;;;14.84;54.83;100585.50;128318;1101;62174;-76
2021/05/01 08:44:35;;;;;;;12.57;9.33;;;;;;;14.99;54.42;100587.95;128308;1101;62469;-73
2021/05/01 08:47:05;;;;;;;10.70;8.23;;;;;;;14.97;53.94;100590.02;128349;1101;62426;-74
2021/05/01 08:49:32;;;;;;;11.40;8.45;;;;;;;15.00;53.76;100583.43;128389;1101;62158;-73
2021/05/01 08:51:59;;;;;;;10.87;7.60;;;;;;;15.11;54.07;100592.66;128378;1101;62469;-73
2021/05/01 08:54:26;;;;;;;10.67;7.87;;;;;;;15.01;52.62;100585.90;128317;1101;62498;-73
2021/05/01 08:56:53;;;;;;;9.13;6.47;;;;;;;14.81;52.23;100591.27;128370;1101;62576;-73
2021/05/01 08:59:20;;;;;;;12.97;8.93;;;;;;;14.67;53.53;100585.08;128283;1101;62428;-72
2021/05/01 09:01:50;;;;;;;11.30;8.07;;;;;;;14.63;53.96;100588.37;128318;1101;62809;-73
2021/05/01 09:04:17;;;;;;;12.67;9.53;;;;;;;14.60;54.52;100586.94;128321;1101;62467;-73
2021/05/01 09:06:46;;;;;;;14.00;9.90;;;;;;;14.56;52.85;100592.89;128346;1101;62321;-73
2021/05/01 09:09:13;;;;;;;11.53;8.10;;;;;;;14.52;53.70;100589.77;128156;1101;62390;-73
2021/05/01 09:11:40;;;;;;;13.60;9.97;;;;;;;14.56;52.85;100585.70;128335;1101;62082;-73
2021/05/01 09:14:22;;;;;;;13.93;8.73;;;;;;;14.57;52.90;100576.65;128333;1101;62236;-72
2021/05/01 09:16:58;;;;;;;10.47;7.37;;;;;;;14.62;53.21;100571.53;128369;1101;62544;-72
2021/05/01 09:19:36;;;;;;;11.23;7.67;;;;;;;14.59;51.52;100571.92;128385;1100;62383;-73
2021/05/01 09:22:07;;;;;;;12.40;8.87;;;;;;;14.57;52.84;100567.82;128348;1101;62243;-74
2021/05/01 09:24:35;;;;;;;8.27;5.97;;;;;;;14.56;51.56;100574.20;128401;1101;62399;-73
2021/05/01 09:27:02;;;;;;;10.23;7.83;;;;;;;14.55;52.20;100569.84;128329;1101;62062;-73
2021/05/01 09:29:32;;;;;;;10.33;8.03;;;;;;;14.54;52.29;100563.69;128414;1101;62032;-73
2021/05/01 09:32:01;;;;;;;11.87;8.50;;;;;;;14.50;53.07;100572.31;128356;1101;62143;-73
2021/05/01 09:34:38;;;;;;;10.30;7.40;;;;;;;14.45;52.73;100564.89;128350;1101;63975;-74
2021/05/01 09:37:07;;;;;;;13.70;9.40;;;;;;;14.42;52.19;100571.47;128342;1101;62660;-74
2021/05/01 09:39:34;;;;;;;12.43;8.80;;;;;;;14.36;52.73;100574.13;128446;1101;62084;-75
2021/05/01 09:42:14;;;;;;;13.37;9.43;;;;;;;14.40;52.41;100570.03;128333;1101;62198;-74
2021/05/01 09:44:43;;;;;;;13.67;9.63;;;;;;;14.50;53.46;100581.14;128379;1101;62484;-74
2021/05/01 09:47:16;;;;;;;14.50;10.10;;;;;;;14.51;52.06;100569.42;128361;1101;62973;-75
2021/05/01 09:49:46;;;;;;;11.03;8.68;;;;;;;14.47;52.90;100578.86;128283;1101;62091;-75
2021/05/01 09:52:18;;;;;;;10.27;7.07;;;;;;;14.45;52.82;100570.23;128365;1101;62568;-74
2021/05/01 09:54:47;;;;;;;10.50;7.53;;;;;;;14.47;52.45;100574.36;128421;1101;62209;-74
2021/05/01 09:57:21;;;;;;;13.47;9.00;;;;;;;14.47;51.90;100585.04;128444;1101;62719;-74
2021/05/01 09:59:54;;;;;;;13.50;9.40;;;;;;;14.37;51.71;100578.45;128407;1101;62310;-74
2021/05/01 10:02:42;;;;;;;13.10;8.07;;;;;;;14.34;52.58;100576.17;128412;1101;62524;-74
2021/05/01 10:05:14;;;;;;;6.80;4.87;;;;;;;14.40;51.47;100562.02;128303;1101;61881;-74
2021/05/01 10:07:50;;;;;;;7.70;5.97;;;;;;;14.56;52.19;100567.01;128358;1101;62305;-76
2021/05/01 10:10:18;;;;;;;10.77;7.10;;;;;;;14.63;50.97;100561.67;128392;1101;62020;-74
2021/05/01 10:12:45;;;;;;;9.37;6.63;;;;;;;14.75;51.66;100560.03;128367;1101;62957;-75
2021/05/01 10:15:21;;;;;;;9.40;6.10;;;;;;;14.92;50.67;100564.94;128382;1101;62307;-74
2021/05/01 10:17:49;;;;;;;9.93;6.90;;;;;;;15.02;49.84;100565.34;128423;1101;62355;-74
2021/05/01 10:20:17;;;;;;;13.77;9.63;;;;;;;15.00;48.82;100562.06;128441;1101;62269;-74
2021/05/01 10:22:46;;;;;;;13.80;9.20;;;;;;;15.00;49.19;100562.91;128376;1101;61997;-74
2021/05/01 10:25:21;;;;;;;10.37;7.87;;;;;;;15.09;50.22;100558.97;128415;1101;62967;-74
2021/05/01 10:27:53;;;;;;;11.23;6.20;;;;;;;15.16;49.56;100556.29;128432;1101;62490;-74
2021/05/01 10:33:17;;;;;;;12.17;9.07;;;;;;;15.11;47.93;100563.27;128436;1101;62104;-74
2021/05/01 10:36:10;;;;;;;10.27;7.00;;;;;;;15.04;48.10;100558.76;128433;1101;62116;-74
2021/05/01 10:38:39;;;;;;;11.03;6.63;;;;;;;14.81;49.98;100559.22;128444;1101;62165;-75
2021/05/01 10:41:15;;;;;;;11.03;8.10;;;;;;;14.74;50.42;100554.89;128385;1101;62258;-75
2021/05/01 10:43:55;;;;;;;11.00;7.80;;;;;;;14.70;49.49;100559.81;128161;1102;62293;-75
2021/05/01 10:46:32;;;;;;;9.93;6.80;;;;;;;14.89;50.37;100545.63;128424;1101;62163;-74
2021/05/01 10:49:04;;;;;;;14.00;9.73;;;;;;;15.04;48.82;100558.76;128424;1101;62920;-75
2021/05/01 10:51:40;;;;;;;13.70;10.53;;;;;;;15.04;49.64;100560.62;128389;1101;63626;-74
2021/05/01 10:54:16;;;;;;;13.53;8.40;;;;;;;14.88;50.27;100569.89;128407;1101;62573;-74
2021/05/01 10:56:49;;;;;;;15.40;10.43;;;;;;;14.91;49.65;100568.65;128419;1101;62276;-74
2021/05/01 10:59:17;;;;;;;16.47;11.67;;;;;;;15.00;51.44;100551.38;128371;1101;62163;-74
2021/05/01 11:01:47;;;;;;;14.93;11.43;;;;;;;14.98;51.32;100553.43;128435;1101;63063;-74
2021/05/01 11:04:18;;;;;;;13.47;10.03;;;;;;;14.94;52.12;100566.40;128388;1101;63148;-74
2021/05/01 11:06:50;;;;;;;16.03;10.57;;;;;;;15.01;52.04;100569.06;128467;1101;62367;-74
2021/05/01 11:09:31;;;;;;;16.97;13.20;;;;;;;14.98;51.73;100550.76;128399;1101;62413;-76
2021/05/01 11:12:00;;;;;;;18.60;13.20;;;;;;;14.96;51.68;100560.83;128387;1101;62316;-74
2021/05/01 11:14:30;;;;;;;17.20;12.73;;;;;;;15.17;51.78;100563.26;128440;1101;62110;-74
2021/05/01 11:17:25;;;;;;;14.05;10.15;;;;;;;15.37;49.49;100560.56;128419;1101;62071;-74
2021/05/01 11:19:59;;;;;;;12.10;8.83;;;;;;;15.55;49.78;100569.76;128291;1101;62321;-74